Time;durP1;ratioP1;P1;durP2;ratioP2;P2;SDS_P1;SDS_P2;PMS_P1;PMS_P2;Temp;Humidity;BMP_temperature;BMP_pressure;BME280_temperature;BME280_humidity;BME280_pressure;Samples;Min_cycle;Max_cycle;Signal;HPM_P1;HPM_P2
2022/08/07 00:01:35;;;;;;;8.07;7.25;;;12.10;99.90;;;;;;5057831;28;20044;-48
2022/08/07 00:04:02;;;;;;;7.95;7.15;;;12.00;99.90;;;;;;5063538;28;20045;-53
2022/08/07 00:06:31;;;;;;;8.20;6.72;;;12.00;99.90;;;;;;5063391;28;20446;-49
2022/08/07 00:08:56;;;;;;;7.63;6.47;;;12.00;99.90;;;;;;5046328;28;20095;-50
2022/08/07 00:11:22;;;;;;;7.03;6.25;;;11.90;99.90;;;;;;5063254;28;20131;-47
2022/08/07 00:13:48;;;;;;;7.15;6.45;;;11.90;99.90;;;;;;5055420;28;20050;-48
2022/08/07 00:16:14;;;;;;;6.15;5.55;;;11.90;99.90;;;;;;5063506;28;20488;-48
2022/08/07 00:18:41;;;;;;;7.32;6.60;;;11.80;99.90;;;;;;5063763;28;20041;-48
2022/08/07 00:21:08;;;;;;;7.97;6.30;;;11.90;99.90;;;;;;5063618;28;20187;-48
2022/08/07 00:23:37;;;;;;;11.35;9.20;;;11.90;99.90;;;;;;5063436;28;20049;-48
2022/08/07 00:26:05;;;;;;;7.60;6.82;;;11.80;99.90;;;;;;5063100;28;20056;-48
2022/08/07 00:28:43;;;;;;;6.25;5.57;;;11.80;99.90;;;;;;5062756;28;20044;-48
2022/08/07 00:31:09;;;;;;;6.65;6.05;;;11.80;99.90;;;;;;5062865;28;20593;-47
2022/08/07 00:33:37;;;;;;;8.23;5.70;;;11.80;99.90;;;;;;5065107;28;20047;-47
2022/08/07 00:36:04;;;;;;;6.25;5.63;;;11.80;99.90;;;;;;5067024;28;20044;-47
2022/08/07 00:38:31;;;;;;;6.55;4.72;;;11.70;99.90;;;;;;5066007;28;20538;-48
2022/08/07 00:40:58;;;;;;;4.50;4.07;;;11.70;99.90;;;;;;5066863;28;20052;-47
2022/08/07 00:43:23;;;;;;;5.65;4.18;;;11.70;99.90;;;;;;5066763;28;20056;-48
2022/08/07 00:45:49;;;;;;;5.35;4.28;;;11.70;99.90;;;;;;5065888;28;20067;-48
2022/08/07 00:48:15;;;;;;;5.25;4.75;;;11.60;99.90;;;;;;5047980;28;20045;-47
2022/08/07 00:50:41;;;;;;;5.35;4.85;;;11.60;99.90;;;;;;5066704;28;20048;-50
2022/08/07 00:53:07;;;;;;;6.68;5.93;;;11.60;99.90;;;;;;5066609;28;20590;-51
2022/08/07 00:55:33;;;;;;;8.23;6.55;;;11.60;99.90;;;;;;5065553;28;20059;-48
2022/08/07 00:57:59;;;;;;;7.45;6.30;;;11.70;99.90;;;;;;5070422;28;20055;-50
2022/08/07 01:00:25;;;;;;;7.75;6.90;;;11.60;99.90;;;;;;5044213;28;20063;-50
2022/08/07 01:02:51;;;;;;;8.77;7.88;;;11.60;99.90;;;;;;5046497;28;20128;-46
2022/08/07 01:05:18;;;;;;;10.38;8.00;;;11.60;99.90;;;;;;5046397;28;20110;-49
2022/08/07 01:07:45;;;;;;;7.22;5.57;;;11.50;99.90;;;;;;5046613;28;20049;-48
2022/08/07 01:10:11;;;;;;;6.40;5.70;;;11.50;99.90;;;;;;5045205;28;20045;-51
2022/08/07 01:12:39;;;;;;;8.32;6.00;;;11.50;99.90;;;;;;5043073;28;20801;-48
2022/08/07 01:15:06;;;;;;;7.22;6.43;;;11.50;99.90;;;;;;5040901;28;20045;-50
2022/08/07 01:17:33;;;;;;;7.38;6.00;;;11.50;99.90;;;;;;5045626;28;20087;-47
2022/08/07 01:20:11;;;;;;;7.13;6.43;;;11.40;99.90;;;;;;5045928;28;20049;-50
2022/08/07 01:22:38;;;;;;;7.10;6.40;;;11.30;99.90;;;;;;5046330;28;20072;-49
2022/08/07 01:25:06;;;;;;;7.13;6.22;;;11.30;99.90;;;;;;5046916;28;20056;-49
2022/08/07 01:27:32;;;;;;;6.05;5.45;;;11.30;99.90;;;;;;5046974;28;20044;-47
2022/08/07 01:29:59;;;;;;;7.07;5.13;;;11.30;99.90;;;;;;5046223;28;20845;-47
2022/08/07 01:32:26;;;;;;;7.47;5.05;;;11.30;99.90;;;;;;5045306;28;20052;-47
2022/08/07 01:34:53;;;;;;;7.22;4.57;;;11.30;99.90;;;;;;5046086;28;20095;-49
2022/08/07 01:37:19;;;;;;;5.03;4.53;;;11.30;99.90;;;;;;5046142;28;20049;-49
2022/08/07 01:39:46;;;;;;;4.80;4.35;;;11.30;99.90;;;;;;5045982;28;20902;-48
2022/08/07 01:42:14;;;;;;;5.78;5.28;;;11.30;99.90;;;;;;5045867;28;20045;-47
2022/08/07 01:44:40;;;;;;;7.07;6.32;;;11.20;99.90;;;;;;5045150;28;20085;-48
2022/08/07 01:47:08;;;;;;;6.93;6.22;;;11.10;99.90;;;;;;5045993;28;20045;-49
2022/08/07 01:49:35;;;;;;;6.75;5.68;;;11.00;99.90;;;;;;5045415;28;20618;-46
2022/08/07 01:52:03;;;;;;;6.30;5.68;;;11.10;99.90;;;;;;5045817;28;20085;-47
2022/08/07 01:54:39;;;;;;;6.75;5.00;;;11.10;99.90;;;;;;5045730;28;20666;-46
2022/08/07 01:57:09;;;;;;;5.78;5.18;;;11.00;99.90;;;;;;5047702;28;20095;-48
2022/08/07 02:00:17;;;;;;;8.18;6.35;;;11.00;99.90;;;;;;5045951;28;20067;-47
2022/08/07 02:02:52;;;;;;;5.10;4.40;;;11.00;99.90;;;;;;5022166;28;20063;-46
2022/08/07 02:05:25;;;;;;;5.15;4.65;;;11.00;99.90;;;;;;5024747;28;20148;-46
2022/08/07 02:07:53;;;;;;;;;;;11.10;99.90;;;;;;5024951;28;20404;-49
2022/08/07 02:10:24;;;;;;;5.10;4.60;;;11.00;99.90;;;;;;5025597;28;19936;-47
2022/08/07 02:12:51;;;;;;;5.60;5.10;;;11.00;99.90;;;;;;5025338;28;20080;-47
2022/08/07 02:15:22;;;;;;;6.10;5.45;;;10.90;99.90;;;;;;5025190;28;20053;-49
2022/08/07 02:17:50;;;;;;;6.45;5.85;;;10.80;99.90;;;;;;5022252;28;20045;-46
2022/08/07 02:20:18;;;;;;;6.82;5.18;;;10.90;99.90;;;;;;5021651;28;20526;-46
2022/08/07 02:22:45;;;;;;;7.05;5.80;;;10.90;99.90;;;;;;5025292;28;20045;-51
2022/08/07 02:25:14;;;;;;;9.30;5.60;;;10.80;99.90;;;;;;5022437;28;20052;-51
2022/08/07 02:27:41;;;;;;;5.43;4.43;;;10.80;99.90;;;;;;5025079;28;20057;-50
2022/08/07 02:30:08;;;;;;;5.75;5.00;;;10.80;99.90;;;;;;5025483;28;20053;-51
2022/08/07 02:32:36;;;;;;;8.23;6.20;;;10.80;99.90;;;;;;5019982;28;20056;-49
2022/08/07 02:35:05;;;;;;;8.52;7.60;;;10.80;99.90;;;;;;5024872;28;20072;-50
2022/08/07 02:37:34;;;;;;;8.88;7.30;;;10.70;99.90;;;;;;5025186;28;20056;-48
2022/08/07 02:40:01;;;;;;;6.57;5.90;;;10.70;99.90;;;;;;5019856;28;20073;-48
2022/08/07 02:42:29;;;;;;;5.43;4.40;;;10.80;99.90;;;;;;5024739;28;20061;-50
2022/08/07 02:44:56;;;;;;;6.38;4.32;;;10.80;99.90;;;;;;5025264;28;20049;-48
2022/08/07 02:47:22;;;;;;;5.45;4.18;;;10.70;99.90;;;;;;5023925;28;20408;-47
2022/08/07 02:49:48;;;;;;;4.47;4.07;;;10.70;99.90;;;;;;5024440;28;20129;-51
2022/08/07 02:52:32;;;;;;;5.13;4.30;;;10.70;99.90;;;;;;5024277;28;20120;-48
2022/08/07 02:55:06;;;;;;;6.22;4.57;;;10.70;99.90;;;;;;5024235;28;20518;-50
2022/08/07 02:57:36;;;;;;;6.22;4.85;;;10.60;99.90;;;;;;5021569;28;20049;-47
2022/08/07 03:00:04;;;;;;;9.30;5.35;;;10.60;99.90;;;;;;5026779;28;20049;-47
2022/08/07 03:02:31;;;;;;;6.63;6.03;;;10.60;99.90;;;;;;5064003;28;20060;-47
2022/08/07 03:05:00;;;;;;;8.98;6.80;;;10.60;99.90;;;;;;5045530;28;20518;-46
2022/08/07 03:07:26;;;;;;;8.00;6.28;;;10.60;99.90;;;;;;5064372;28;20130;-47
2022/08/07 03:09:52;;;;;;;8.23;6.68;;;10.60;99.90;;;;;;5063486;28;20060;-46
2022/08/07 03:12:19;;;;;;;8.20;7.10;;;10.60;99.90;;;;;;5045875;28;20056;-46
2022/08/07 03:14:45;;;;;;;7.80;6.05;;;10.70;99.90;;;;;;5056450;28;20541;-47
2022/08/07 03:17:11;;;;;;;10.30;7.18;;;10.70;99.90;;;;;;5064667;28;20037;-51
2022/08/07 03:19:39;;;;;;;8.98;7.97;;;10.70;99.90;;;;;;5063704;28;20498;-46
2022/08/07 03:22:06;;;;;;;10.52;9.27;;;10.60;99.90;;;;;;5064366;28;20048;-48
2022/08/07 03:24:33;;;;;;;10.35;8.90;;;10.50;99.90;;;;;;5064033;28;20052;-47
2022/08/07 03:27:02;;;;;;;11.88;8.73;;;10.50;99.90;;;;;;5046340;28;20040;-47
2022/08/07 03:29:39;;;;;;;7.68;6.32;;;10.50;99.90;;;;;;5042585;28;20135;-48
2022/08/07 03:32:10;;;;;;;5.35;4.32;;;10.50;99.90;;;;;;5059916;28;20510;-46
2022/08/07 03:34:37;;;;;;;6.78;5.28;;;10.40;99.90;;;;;;5044689;28;20243;-49
2022/08/07 03:37:04;;;;;;;13.70;6.30;;;10.40;99.90;;;;;;5064634;28;20044;-47
2022/08/07 03:39:35;;;;;;;5.38;4.88;;;10.40;99.90;;;;;;5045050;28;20052;-46
2022/08/07 03:42:05;;;;;;;6.47;4.72;;;10.40;99.90;;;;;;5063685;28;20057;-48
2022/08/07 03:44:34;;;;;;;7.60;6.38;;;10.30;99.90;;;;;;5045727;28;20056;-48
2022/08/07 03:47:01;;;;;;;6.80;5.95;;;10.30;99.90;;;;;;5045674;28;20052;-52
2022/08/07 03:49:28;;;;;;;8.38;6.88;;;10.30;99.90;;;;;;5064289;28;20052;-57
2022/08/07 03:51:57;;;;;;;7.50;6.70;;;10.30;99.90;;;;;;5063805;28;20076;-49
2022/08/07 03:54:24;;;;;;;10.00;7.78;;;10.30;99.90;;;;;;5042461;28;20140;-50
2022/08/07 03:56:52;;;;;;;8.00;7.20;;;10.20;99.90;;;;;;5045607;28;20110;-46
2022/08/07 03:59:20;;;;;;;8.93;7.55;;;10.20;99.90;;;;;;5046824;28;20417;-47
2022/08/07 04:01:47;;;;;;;8.13;7.20;;;10.20;99.90;;;;;;5038696;28;20128;-51
2022/08/07 04:04:18;;;;;;;7.35;6.65;;;10.10;99.90;;;;;;5043090;28;20675;-50
2022/08/07 04:06:44;;;;;;;7.93;6.35;;;10.10;99.90;;;;;;5043960;28;20475;-49
2022/08/07 04:09:11;;;;;;;9.32;8.02;;;10.10;99.90;;;;;;5047199;28;20125;-47
2022/08/07 04:11:37;;;;;;;7.35;6.55;;;10.10;99.90;;;;;;5046410;28;20508;-46
2022/08/07 04:14:05;;;;;;;6.90;6.20;;;10.20;99.90;;;;;;5047380;28;20412;-50
2022/08/07 04:16:31;;;;;;;8.18;6.43;;;10.20;99.90;;;;;;5045267;28;20053;-52
2022/08/07 04:18:57;;;;;;;6.97;6.07;;;10.20;99.90;;;;;;5047839;28;20057;-49
2022/08/07 04:21:25;;;;;;;5.68;4.97;;;10.20;99.90;;;;;;5047175;28;20053;-47
2022/08/07 04:23:51;;;;;;;6.15;4.60;;;10.20;99.90;;;;;;5045566;28;20083;-47
2022/08/07 04:26:17;;;;;;;6.25;4.72;;;10.30;99.90;;;;;;5047958;28;20053;-47
2022/08/07 04:28:43;;;;;;;6.75;5.68;;;10.30;99.90;;;;;;5047581;28;20071;-46
2022/08/07 04:31:10;;;;;;;4.93;4.40;;;10.30;99.90;;;;;;5047895;28;20044;-50
2022/08/07 04:33:36;;;;;;;6.93;5.15;;;10.40;99.90;;;;;;5047901;28;20045;-51
2022/08/07 04:36:07;;;;;;;5.78;5.18;;;10.40;99.90;;;;;;5044920;28;20055;-53
2022/08/07 04:38:35;;;;;;;5.45;4.85;;;10.50;99.90;;;;;;5047614;28;20048;-48
2022/08/07 04:41:02;;;;;;;5.43;4.93;;;10.50;99.90;;;;;;5043503;28;20088;-47
2022/08/07 04:43:39;;;;;;;5.97;5.32;;;10.50;99.90;;;;;;5040033;28;20670;-47
2022/08/07 04:46:42;;;;;;;6.07;5.15;;;10.60;99.90;;;;;;5047116;28;20052;-46
2022/08/07 04:49:56;;;;;;;7.88;5.38;;;10.60;99.90;;;;;;5043905;28;20061;-46
2022/08/07 04:52:44;;;;;;;6.68;5.57;;;10.80;99.90;;;;;;5023739;28;20168;-48
2022/08/07 04:55:27;;;;;;;6.30;5.70;;;10.90;99.90;;;;;;5006910;28;20057;-49
2022/08/07 04:58:16;;;;;;;6.07;5.47;;;11.60;99.90;;;;;;5024264;28;20054;-49
2022/08/07 05:01:07;;;;;;;6.78;6.07;;;12.90;99.90;;;;;;5024149;28;20544;-48
2022/08/07 05:03:59;;;;;;;5.45;4.95;;;14.30;99.90;;;;;;5017967;28;20080;-50
2022/08/07 05:06:34;;;;;;;6.22;5.63;;;15.60;99.90;;;;;;5007908;28;20412;-49
2022/08/07 05:09:21;;;;;;;5.32;4.85;;;16.60;99.90;;;;;;5024015;28;20500;-47
2022/08/07 05:11:51;;;;;;;5.90;5.38;;;17.60;99.90;;;;;;5023175;28;20473;-51
2022/08/07 05:14:24;;;;;;;6.50;5.90;;;18.10;99.90;;;;;;5016644;28;20807;-48
2022/08/07 05:16:55;;;;;;;8.13;7.43;;;18.60;99.90;;;;;;5021647;28;20065;-47
2022/08/07 05:19:24;;;;;;;7.35;6.65;;;18.80;99.90;;;;;;5021993;28;20491;-47
2022/08/07 05:21:54;;;;;;;10.23;7.53;;;19.00;99.90;;;;;;5023736;28;20057;-52
2022/08/07 05:24:26;;;;;;;7.35;6.75;;;19.20;99.90;;;;;;5044587;28;20097;-46
2022/08/07 05:26:57;;;;;;;7.30;6.55;;;19.70;99.70;;;;;;5048108;28;20482;-46
2022/08/07 05:29:25;;;;;;;8.20;6.72;;;20.20;99.20;;;;;;5045934;28;20110;-47
2022/08/07 05:31:53;;;;;;;7.28;6.68;;;20.70;98.50;;;;;;5063130;28;20068;-49
2022/08/07 05:34:20;;;;;;;6.88;6.18;;;20.90;98.10;;;;;;5065111;28;20087;-50
2022/08/07 05:36:49;;;;;;;7.90;6.07;;;21.20;97.80;;;;;;5064841;28;20609;-52
2022/08/07 05:39:17;;;;;;;6.28;5.70;;;21.30;97.10;;;;;;5065067;28;20495;-48
2022/08/07 05:41:46;;;;;;;10.82;6.97;;;21.60;97.00;;;;;;5044773;28;20128;-50
2022/08/07 05:44:12;;;;;;;8.32;7.53;;;21.90;96.80;;;;;;5065983;28;20410;-47
2022/08/07 05:46:40;;;;;;;8.27;7.55;;;22.20;96.70;;;;;;5065734;28;20049;-47
2022/08/07 05:49:08;;;;;;;8.25;7.50;;;22.30;95.60;;;;;;5064628;28;20051;-48
2022/08/07 05:51:34;;;;;;;8.40;7.63;;;22.50;95.50;;;;;;5065241;28;20127;-51
2022/08/07 05:54:01;;;;;;;8.50;7.70;;;22.70;95.40;;;;;;5066047;28;20143;-48
2022/08/07 05:56:30;;;;;;;7.82;7.13;;;22.90;95.50;;;;;;5045993;28;20056;-53
2022/08/07 05:58:57;;;;;;;8.45;7.60;;;23.40;95.40;;;;;;5046329;28;20379;-48
2022/08/07 06:01:25;;;;;;;7.90;7.20;;;23.70;95.00;;;;;;5028596;28;20079;-51
2022/08/07 06:03:54;;;;;;;7.50;6.80;;;23.90;94.90;;;;;;5046159;28;20060;-51
2022/08/07 06:06:20;;;;;;;7.80;7.00;;;24.30;94.20;;;;;;5044723;28;20071;-51
2022/08/07 06:08:47;;;;;;;8.40;7.70;;;24.60;94.10;;;;;;5047294;28;20053;-51
2022/08/07 06:11:13;;;;;;;8.85;8.05;;;25.10;93.20;;;;;;5065150;28;20106;-48
2022/08/07 06:13:39;;;;;;;9.52;8.73;;;25.60;92.60;;;;;;5065538;28;20044;-49
2022/08/07 06:16:09;;;;;;;10.75;9.32;;;26.20;92.20;;;;;;5064529;28;20074;-50
2022/08/07 06:18:35;;;;;;;11.50;10.32;;;26.00;92.10;;;;;;5044545;28;20551;-52
2022/08/07 06:21:13;;;;;;;11.77;10.68;;;26.00;92.10;;;;;;5069620;28;20048;-55
2022/08/07 06:23:42;;;;;;;10.45;9.55;;;26.10;91.80;;;;;;5038433;28;20051;-51
2022/08/07 06:26:12;;;;;;;10.55;9.55;;;26.10;91.90;;;;;;5019781;28;20578;-50
2022/08/07 06:28:49;;;;;;;10.57;9.68;;;26.40;91.20;;;;;;5059054;28;20051;-50
2022/08/07 06:31:15;;;;;;;9.00;8.20;;;26.30;91.20;;;;;;5063783;28;20507;-50
2022/08/07 06:33:42;;;;;;;9.77;8.88;;;26.60;91.40;;;;;;5057431;28;20055;-48
2022/08/07 06:36:10;;;;;;;8.73;8.02;;;27.00;91.40;;;;;;5044907;28;20538;-51
2022/08/07 06:38:37;;;;;;;9.35;8.38;;;27.00;90.90;;;;;;5066734;28;20044;-48
2022/08/07 06:41:08;;;;;;;8.10;7.50;;;27.10;90.80;;;;;;5052353;28;20053;-48
2022/08/07 06:43:37;;;;;;;7.25;6.65;;;27.20;90.60;;;;;;5057707;28;20159;-49
2022/08/07 06:46:03;;;;;;;7.65;7.05;;;27.20;90.30;;;;;;5054607;28;20059;-52
2022/08/07 06:48:29;;;;;;;7.50;6.88;;;27.00;90.30;;;;;;5050982;28;20075;-49
2022/08/07 06:51:00;;;;;;;6.80;6.20;;;27.00;90.70;;;;;;5050459;28;20491;-52
2022/08/07 06:53:26;;;;;;;7.22;6.53;;;27.10;90.60;;;;;;5055866;28;20053;-51
2022/08/07 06:55:54;;;;;;;5.50;5.00;;;27.10;90.50;;;;;;5047374;28;20131;-52
2022/08/07 06:58:21;;;;;;;5.88;5.30;;;27.10;90.00;;;;;;5056101;28;20499;-50
2022/08/07 07:00:48;;;;;;;5.78;5.03;;;27.30;89.70;;;;;;5061012;28;20049;-54
2022/08/07 07:03:15;;;;;;;6.43;5.43;;;27.50;88.80;;;;;;5061443;28;20561;-53
2022/08/07 07:05:41;;;;;;;6.22;5.30;;;27.60;89.90;;;;;;5046778;28;20517;-50
2022/08/07 07:08:07;;;;;;;5.47;4.97;;;27.20;89.40;;;;;;5071595;28;20106;-54
2022/08/07 07:10:37;;;;;;;5.20;4.20;;;26.20;89.40;;;;;;5057304;28;20048;-52
2022/08/07 07:13:13;;;;;;;6.60;4.00;;;25.30;90.30;;;;;;5051890;28;20048;-52
2022/08/07 07:15:45;;;;;;;5.25;4.18;;;25.00;91.50;;;;;;5056567;28;20098;-53
2022/08/07 07:18:40;;;;;;;5.47;4.40;;;24.60;91.50;;;;;;5063793;28;20522;-52
2022/08/07 07:21:17;;;;;;;5.13;3.80;;;24.50;91.80;;;;;;5063684;28;20064;-49
2022/08/07 07:23:43;;;;;;;5.05;3.75;;;24.60;91.60;;;;;;5064760;28;20067;-53
2022/08/07 07:26:13;;;;;;;5.15;3.10;;;24.40;91.70;;;;;;5051204;28;20275;-53
2022/08/07 07:28:56;;;;;;;4.00;3.38;;;24.30;91.70;;;;;;5047168;28;20380;-50
2022/08/07 07:31:38;;;;;;;3.83;3.40;;;24.30;91.60;;;;;;5026527;28;20133;-52
2022/08/07 07:34:17;;;;;;;3.67;2.95;;;24.10;91.90;;;;;;5024387;28;20507;-51
2022/08/07 07:36:49;;;;;;;4.43;3.22;;;24.50;91.70;;;;;;5006712;28;20561;-54
2022/08/07 07:39:16;;;;;;;4.15;3.20;;;24.60;91.00;;;;;;5024151;28;20037;-52
2022/08/07 07:41:48;;;;;;;3.47;2.72;;;24.50;91.20;;;;;;5019437;28;20064;-53
2022/08/07 07:44:17;;;;;;;3.28;2.90;;;24.40;91.00;;;;;;5024048;28;20488;-52
2022/08/07 07:46:49;;;;;;;3.85;2.92;;;24.60;91.70;;;;;;5027788;28;20051;-53
2022/08/07 07:49:18;;;;;;;4.75;3.33;;;24.50;91.60;;;;;;5028105;28;20538;-54
2022/08/07 07:51:48;;;;;;;5.20;3.80;;;24.10;91.10;;;;;;5027833;28;20057;-53
2022/08/07 07:54:15;;;;;;;3.72;3.22;;;24.40;92.10;;;;;;5028028;28;20041;-52
2022/08/07 07:56:43;;;;;;;4.13;3.08;;;24.30;92.00;;;;;;5028107;28;20119;-51
2022/08/07 07:59:15;;;;;;;6.35;3.58;;;24.10;92.00;;;;;;5028252;28;20056;-51
2022/08/07 08:01:45;;;;;;;3.92;3.30;;;24.10;92.40;;;;;;5027190;28;20183;-54
2022/08/07 08:04:13;;;;;;;3.25;2.95;;;24.10;92.00;;;;;;5028286;28;20065;-50
2022/08/07 08:06:41;;;;;;;4.15;3.10;;;24.10;92.40;;;;;;5027459;28;20519;-53
2022/08/07 08:09:08;;;;;;;3.88;3.55;;;24.10;92.00;;;;;;5028561;28;20101;-50
2022/08/07 08:11:35;;;;;;;3.90;3.53;;;24.10;92.00;;;;;;5026828;28;20137;-52
2022/08/07 08:14:00;;;;;;;6.43;3.85;;;23.80;91.50;;;;;;5016444;28;20060;-52
2022/08/07 08:16:37;;;;;;;5.55;3.45;;;23.80;92.70;;;;;;5015021;28;20046;-56
2022/08/07 08:19:07;;;;;;;5.93;3.33;;;23.90;91.90;;;;;;5023341;28;20060;-51
2022/08/07 08:27:08;;;;;;;3.65;3.00;;;23.70;92.50;;;;;;5027599;28;20073;-55
2022/08/07 08:30:00;;;;;;;4.65;3.20;;;23.90;93.10;;;;;;5022767;28;20064;-53
2022/08/07 08:32:29;;;;;;;5.78;3.00;;;23.60;91.90;;;;;;5067651;28;20055;-54
2022/08/07 08:34:57;;;;;;;4.03;2.70;;;23.20;92.60;;;;;;5056330;28;20052;-56
2022/08/07 08:37:27;;;;;;;5.40;3.42;;;23.30;93.00;;;;;;5063215;28;20499;-51
2022/08/07 08:39:54;;;;;;;3.30;2.78;;;23.20;92.20;;;;;;5063579;28;20063;-54
2022/08/07 08:42:38;;;;;;;4.78;3.38;;;23.40;92.70;;;;;;5067706;28;20048;-51
2022/08/07 08:45:24;;;;;;;5.13;3.70;;;23.20;92.70;;;;;;5060344;28;20079;-53
2022/08/07 08:48:23;;;;;;;3.67;2.78;;;23.30;92.30;;;;;;5049086;28;20048;-53
2022/08/07 08:51:01;;;;;;;4.90;2.90;;;23.60;92.80;;;;;;5063697;28;20040;-53
2022/08/07 08:53:55;;;;;;;4.32;2.78;;;24.00;92.20;;;;;;5067934;28;20513;-54
2022/08/07 08:56:25;;;;;;;3.88;3.08;;;24.00;90.90;;;;;;5064083;28;20059;-53
2022/08/07 08:59:09;;;;;;;3.72;3.08;;;24.00;91.50;;;;;;5066737;28;20055;-55
2022/08/07 09:01:48;;;;;;;3.30;2.80;;;24.00;92.50;;;;;;5055228;28;20052;-54
2022/08/07 09:04:26;;;;;;;3.75;3.28;;;24.00;92.10;;;;;;5059701;28;20707;-51
2022/08/07 09:07:23;;;;;;;3.20;2.90;;;24.10;92.30;;;;;;5055862;28;20040;-56
2022/08/07 09:09:57;;;;;;;4.60;3.20;;;24.40;91.80;;;;;;5059752;28;20045;-54
2022/08/07 09:12:38;;;;;;;6.25;3.35;;;24.30;90.60;;;;;;5046004;28;20067;-54
2022/08/07 09:15:41;;;;;;;5.28;3.60;;;24.30;91.40;;;;;;5046878;28;20052;-53
2022/08/07 09:18:14;;;;;;;5.25;3.30;;;24.40;91.60;;;;;;5056899;28;20538;-54
2022/08/07 09:21:21;;;;;;;3.40;3.08;;;24.30;90.30;;;;;;5048076;28;20123;-53
2022/08/07 09:24:21;;;;;;;4.00;3.45;;;24.30;91.20;;;;;;5060827;28;20449;-55
2022/08/07 09:27:09;;;;;;;3.40;3.10;;;24.40;92.20;;;;;;5062663;28;20044;-55
2022/08/07 09:29:51;;;;;;;3.80;3.45;;;24.70;90.80;;;;;;5044687;28;20072;-58
2022/08/07 09:32:40;;;;;;;6.60;3.20;;;24.70;90.90;;;;;;5066856;28;20052;-58
2022/08/07 09:35:24;;;;;;;4.47;3.38;;;24.90;92.00;;;;;;5053124;28;20299;-57
2022/08/07 09:38:10;;;;;;;4.70;3.90;;;24.80;90.70;;;;;;5049382;28;20115;-56
2022/08/07 09:41:14;;;;;;;3.30;3.00;;;24.70;91.20;;;;;;5066511;28;20064;-57
2022/08/07 09:44:15;;;;;;;4.63;3.60;;;24.80;90.70;;;;;;4973236;28;20552;-52
2022/08/07 09:47:17;;;;;;;5.57;3.05;;;24.70;90.50;;;;;;4945111;28;20461;-57
2022/08/07 09:50:04;;;;;;;6.03;3.63;;;24.80;91.20;;;;;;4941475;29;20090;-56
2022/08/07 09:52:43;;;;;;;4.95;3.58;;;24.90;89.80;;;;;;4944510;29;20516;-54
2022/08/07 09:55:30;;;;;;;5.13;2.85;;;24.60;90.20;;;;;;4944511;29;20074;-56
2022/08/07 09:58:17;;;;;;;4.05;3.30;;;24.30;88.70;;;;;;4946861;28;20055;-55
2022/08/07 10:01:27;;;;;;;3.55;3.15;;;24.40;91.40;;;;;;4943592;29;20085;-54
2022/08/07 10:04:04;;;;;;;5.25;3.20;;;24.60;90.60;;;;;;4940005;29;20507;-56
2022/08/07 10:06:39;;;;;;;6.68;3.17;;;24.90;90.70;;;;;;4942224;28;20047;-56
2022/08/07 10:09:04;;;;;;;5.50;2.85;;;24.90;90.50;;;;;;4943605;29;20066;-55
2022/08/07 10:11:39;;;;;;;4.15;3.20;;;25.00;91.10;;;;;;4943570;29;20059;-56
2022/08/07 10:14:13;;;;;;;5.82;3.08;;;24.90;88.50;;;;;;4943294;29;20478;-57
2022/08/07 10:16:47;;;;;;;4.57;3.58;;;24.80;90.20;;;;;;4942729;29;20525;-56
2022/08/07 10:19:46;;;;;;;3.53;2.92;;;24.40;91.10;;;;;;4944360;28;20557;-56
2022/08/07 10:22:43;;;;;;;4.28;2.50;;;24.50;90.70;;;;;;4981409;28;20406;-57
2022/08/07 10:25:38;;;;;;;4.10;2.30;;;24.50;89.40;;;;;;5061398;28;20048;-57
2022/08/07 10:28:09;;;;;;;5.22;3.00;;;24.60;88.80;;;;;;4981452;28;20133;-57
2022/08/07 10:30:34;;;;;;;3.78;3.20;;;24.70;90.10;;;;;;4979967;28;20054;-56
2022/08/07 10:33:20;;;;;;;4.50;3.75;;;24.60;89.60;;;;;;4964227;28;20561;-56
2022/08/07 10:36:17;;;;;;;4.32;3.47;;;24.30;90.30;;;;;;4965182;28;20046;-56
2022/08/07 10:38:56;;;;;;;3.53;3.20;;;24.40;90.90;;;;;;4980709;28;20058;-57
2022/08/07 10:41:40;;;;;;;3.63;3.03;;;24.60;90.60;;;;;;4964691;28;20081;-57
2022/08/07 10:44:42;;;;;;;4.40;3.92;;;24.80;91.60;;;;;;4970281;28;20089;-55
2022/08/07 10:47:26;;;;;;;5.88;3.85;;;24.80;91.40;;;;;;4976184;28;20440;-55
2022/08/07 10:50:18;;;;;;;4.32;3.80;;;24.60;92.10;;;;;;4981268;28;20086;-55
2022/08/07 10:52:58;;;;;;;5.32;4.18;;;24.30;91.20;;;;;;4981493;28;20098;-56
2022/08/07 10:55:41;;;;;;;5.40;3.80;;;24.00;91.60;;;;;;4981930;28;20050;-57
2022/08/07 10:58:25;;;;;;;;;;;23.80;91.70;;;;;;4986037;28;20061;-56
2022/08/07 11:01:31;;;;;;;4.55;4.13;;;23.50;92.00;;;;;;4986480;28;20352;-56
2022/08/07 11:04:07;;;;;;;5.00;4.50;;;23.70;92.00;;;;;;4998020;28;20075;-58
2022/08/07 11:06:58;;;;;;;6.22;5.05;;;23.50;91.70;;;;;;5070908;28;20052;-56
2022/08/07 11:09:46;;;;;;;4.75;4.00;;;23.40;92.40;;;;;;5059442;28;20063;-56
2022/08/07 11:12:25;;;;;;;5.95;4.85;;;23.70;92.60;;;;;;5062135;28;20052;-55
2022/08/07 11:14:59;;;;;;;8.20;4.95;;;23.90;91.70;;;;;;5056132;28;20134;-55
2022/08/07 11:17:30;;;;;;;6.45;4.65;;;24.10;91.90;;;;;;5062187;28;20146;-55
2022/08/07 11:20:17;;;;;;;5.97;4.63;;;24.40;91.70;;;;;;5060358;28;20048;-56
2022/08/07 11:22:57;;;;;;;4.55;3.92;;;24.10;91.50;;;;;;5042769;28;20186;-54
2022/08/07 11:25:36;;;;;;;4.95;3.90;;;23.80;91.60;;;;;;5042406;28;20455;-55
2022/08/07 11:28:16;;;;;;;6.38;4.95;;;23.50;91.70;;;;;;5042223;28;20052;-56
2022/08/07 11:30:57;;;;;;;6.20;4.90;;;23.30;91.80;;;;;;5055597;28;20048;-55
2022/08/07 11:33:22;;;;;;;5.05;4.50;;;23.20;92.10;;;;;;5042556;28;20049;-55
2022/08/07 11:36:05;;;;;;;6.22;4.70;;;23.00;92.90;;;;;;5042472;28;20095;-57
2022/08/07 11:39:01;;;;;;;8.55;4.78;;;23.20;93.30;;;;;;5043977;28;20514;-55
2022/08/07 11:41:35;;;;;;;6.93;4.88;;;23.50;92.50;;;;;;5049432;28;20052;-55
2022/08/07 11:44:05;;;;;;;5.25;4.60;;;23.80;92.30;;;;;;5030935;28;20041;-56
2022/08/07 11:46:56;;;;;;;7.25;4.78;;;23.90;92.40;;;;;;5055274;28;20051;-56
2022/08/07 11:50:00;;;;;;;5.10;4.60;;;23.70;92.10;;;;;;5048309;28;20049;-55
2022/08/07 11:52:48;;;;;;;5.55;4.88;;;23.40;92.50;;;;;;5049509;28;20095;-55
2022/08/07 11:55:40;;;;;;;7.47;4.30;;;23.40;93.40;;;;;;5043216;28;20106;-55
2022/08/07 11:58:34;;;;;;;5.53;3.33;;;23.60;92.80;;;;;;5054028;28;20214;-56
2022/08/07 12:01:29;;;;;;;4.22;3.65;;;23.80;92.80;;;;;;5061045;28;20044;-54
2022/08/07 12:04:30;;;;;;;5.70;4.53;;;24.10;92.30;;;;;;5065118;28;20045;-56
2022/08/07 12:07:04;;;;;;;4.40;3.85;;;24.40;92.30;;;;;;4980083;28;20604;-56
2022/08/07 12:09:47;;;;;;;6.15;4.10;;;24.40;92.90;;;;;;4964074;28;20679;-57
2022/08/07 12:12:21;;;;;;;6.97;3.97;;;24.30;92.20;;;;;;4980263;28;20476;-56
2022/08/07 12:14:58;;;;;;;4.40;3.65;;;24.50;91.80;;;;;;4957173;28;20077;-55
2022/08/07 12:17:35;;;;;;;5.10;3.83;;;24.70;91.30;;;;;;4986842;28;20109;-56
2022/08/07 12:20:37;;;;;;;5.30;3.95;;;24.80;90.30;;;;;;4980113;28;20042;-56
2022/08/07 12:23:39;;;;;;;7.00;3.58;;;25.00;90.40;;;;;;4980545;28;20058;-55
2022/08/07 12:26:30;;;;;;;3.90;3.58;;;25.20;89.50;;;;;;4981339;28;20046;-56
2022/08/07 12:29:22;;;;;;;5.03;3.58;;;25.00;89.80;;;;;;4966697;28;20061;-56
2022/08/07 12:32:13;;;;;;;4.35;3.15;;;24.90;88.60;;;;;;4987244;28;20505;-58
2022/08/07 12:34:40;;;;;;;3.80;3.33;;;25.00;90.20;;;;;;4964328;28;20598;-59
2022/08/07 12:37:09;;;;;;;5.03;3.22;;;24.90;89.90;;;;;;4989077;28;20109;-57
2022/08/07 12:39:38;;;;;;;4.22;3.30;;;24.80;89.70;;;;;;4984526;28;20647;-56
2022/08/07 12:42:05;;;;;;;3.38;3.08;;;24.80;90.80;;;;;;4991403;28;20521;-55
2022/08/07 12:44:33;;;;;;;4.13;3.10;;;24.90;87.90;;;;;;5044706;28;20056;-56
2022/08/07 12:47:17;;;;;;;6.15;3.28;;;25.00;90.40;;;;;;5066193;28;20055;-56
2022/08/07 12:50:12;;;;;;;5.57;3.78;;;25.00;90.00;;;;;;5048097;28;20105;-55
2022/08/07 12:53:02;;;;;;;5.30;3.65;;;25.10;90.60;;;;;;5048290;28;20098;-56
2022/08/07 12:55:49;;;;;;;4.78;3.42;;;25.00;88.60;;;;;;5065701;28;20514;-56
2022/08/07 12:58:17;;;;;;;5.20;3.20;;;25.10;87.20;;;;;;5065437;28;20537;-56
2022/08/07 13:01:01;;;;;;;3.75;2.97;;;25.00;89.00;;;;;;5066441;28;20053;-55
2022/08/07 13:03:51;;;;;;;5.43;3.22;;;25.00;89.80;;;;;;5065263;28;20515;-53
2022/08/07 13:07:05;;;;;;;4.85;3.10;;;24.90;88.80;;;;;;5065141;28;20056;-56
2022/08/07 13:09:59;;;;;;;4.65;3.03;;;24.90;89.50;;;;;;4983429;28;20508;-54
2022/08/07 13:12:49;;;;;;;4.25;2.92;;;24.60;87.80;;;;;;4983628;28;20062;-56
2022/08/07 13:15:33;;;;;;;6.10;2.92;;;24.70;89.70;;;;;;4982394;28;20473;-56
2022/08/07 13:18:10;;;;;;;6.60;3.63;;;24.60;87.70;;;;;;4982558;28;20571;-56
2022/08/07 13:20:54;;;;;;;3.78;2.90;;;24.60;89.50;;;;;;4980283;28;20057;-56
2022/08/07 13:23:31;;;;;;;4.60;2.70;;;24.40;90.30;;;;;;4950328;28;20058;-55
2022/08/07 13:26:23;;;;;;;4.72;2.72;;;24.40;88.80;;;;;;4980398;28;20556;-56
2022/08/07 13:29:14;;;;;;;5.25;2.60;;;24.50;89.40;;;;;;4889094;29;20060;-56
2022/08/07 13:31:52;;;;;;;4.07;2.30;;;24.50;89.50;;;;;;4875407;29;20142;-56
2022/08/07 13:35:02;;;;;;;5.05;2.47;;;24.40;88.20;;;;;;4905480;29;20482;-56